Time;durP1;ratioP1;P1;durP2;ratioP2;P2;SDS_P1;SDS_P2;PMS_P1;PMS_P2;Temp;Humidity;BMP_temperature;BMP_pressure;BME280_temperature;BME280_humidity;BME280_pressure;Samples;Min_cycle;Max_cycle;Signal;HPM_P1;HPM_P2
2022/08/28 00:02:13;;;;;;;14.25;3.67;;;;;;;17.24;93.37;101907.34;4898603;29;20619;-58
2022/08/28 00:04:41;;;;;;;7.72;2.90;;;;;;;17.23;92.58;101911.03;4906102;29;20062;-60
2022/08/28 00:07:07;;;;;;;8.77;3.80;;;;;;;17.25;91.88;101910.84;4900191;29;20056;-57
2022/08/28 00:09:35;;;;;;;10.02;3.20;;;;;;;17.23;94.51;101912.81;4909931;29;20413;-60
2022/08/28 00:12:03;;;;;;;9.38;3.10;;;;;;;17.16;93.83;101910.81;4896335;29;20064;-55
2022/08/28 00:14:30;;;;;;;10.85;3.08;;;;;;;17.16;94.84;101913.47;4905729;29;20056;-60
2022/08/28 00:16:56;;;;;;;10.20;3.03;;;;;;;17.13;92.46;101912.97;4898498;29;20062;-60
2022/08/28 00:19:23;;;;;;;11.98;3.10;;;;;;;17.09;95.53;101914.28;4900314;29;20048;-60
2022/08/28 00:21:51;;;;;;;12.75;3.78;;;;;;;17.08;95.88;101921.41;4904703;29;20056;-59
2022/08/28 00:24:17;;;;;;;9.23;3.15;;;;;;;17.02;96.70;101915.94;4904101;29;20070;-60
2022/08/28 00:29:30;;;;;;;11.10;2.83;;;;;;;17.00;95.80;101921.41;4893176;29;20063;-60
2022/08/28 00:31:57;;;;;;;12.30;2.90;;;;;;;16.95;97.22;101926.34;4899321;29;20497;-60
2022/08/28 00:34:24;;;;;;;14.90;3.63;;;;;;;16.94;96.75;101930.00;4899988;29;20056;-60
2022/08/28 00:36:59;;;;;;;12.02;3.03;;;;;;;16.96;96.25;101928.84;4903813;29;20115;-60
2022/08/28 00:39:25;;;;;;;11.77;3.20;;;;;;;16.90;96.93;101916.25;4910537;29;20151;-59
2022/08/28 00:41:52;;;;;;;10.48;3.00;;;;;;;16.96;95.98;101922.72;4900409;29;20060;-60
2022/08/28 00:44:24;;;;;;;9.30;2.58;;;;;;;16.99;95.80;101917.94;4899050;29;20142;-58
2022/08/28 00:46:53;;;;;;;9.85;2.63;;;;;;;17.00;93.98;101916.09;4879985;29;20281;-60
2022/08/28 00:49:24;;;;;;;14.38;3.05;;;;;;;16.90;98.21;101916.25;4909734;29;20048;-60
2022/08/28 00:52:06;;;;;;;10.25;3.30;;;;;;;16.84;99.64;101903.66;4903844;29;20062;-59
2022/08/28 00:54:49;;;;;;;9.20;2.92;;;;;;;16.89;97.98;101914.56;4909199;29;20111;-59
2022/08/28 00:57:32;;;;;;;8.55;3.33;;;;;;;16.82;99.70;101910.06;4895734;29;20846;-59
2022/08/28 00:59:59;;;;;;;9.20;2.85;;;;;;;16.78;99.27;101910.38;4899427;29;20143;-59
2022/08/28 01:02:26;;;;;;;10.95;2.92;;;;;;;16.77;99.32;101915.84;4917833;29;20051;-60
2022/08/28 01:04:53;;;;;;;11.88;3.00;;;;;;;16.78;98.69;101912.22;4905078;29;20048;-59
2022/08/28 01:07:22;;;;;;;8.67;2.83;;;;;;;16.75;97.82;101918.63;4888448;29;20054;-60
2022/08/28 01:09:52;;;;;;;6.40;2.88;;;;;;;16.77;98.73;101915.84;4903761;29;20056;-59
2022/08/28 01:12:27;;;;;;;9.63;2.90;;;;;;;16.70;100.00;101920.97;4902450;29;20056;-60
2022/08/28 01:14:58;;;;;;;10.00;3.10;;;;;;;16.68;100.00;101922.09;4891619;29;20306;-60
2022/08/28 01:17:28;;;;;;;7.88;2.70;;;;;;;16.66;99.94;101922.28;4899029;29;20059;-58
2022/08/28 01:19:57;;;;;;;12.13;2.67;;;;;;;16.64;100.00;101911.00;4904171;29;20466;-61
2022/08/28 01:22:36;;;;;;;10.57;2.67;;;;;;;16.65;100.00;101919.78;4909209;29;20066;-61
2022/08/28 01:25:04;;;;;;;;;;;;;;;16.65;100.00;101920.59;4901833;29;20489;-58
2022/08/28 01:27:31;;;;;;;13.07;3.22;;;;;;;16.51;100.00;101921.22;4894995;29;19927;-60
2022/08/28 01:29:57;;;;;;;12.23;2.97;;;;;;;16.50;100.00;101923.00;4903178;29;20048;-59
2022/08/28 01:32:34;;;;;;;7.95;2.60;;;;;;;16.49;100.00;101915.25;4902716;29;20615;-60
2022/08/28 01:35:01;;;;;;;12.90;3.15;;;;;;;16.46;100.00;101926.97;4899470;29;20615;-59
2022/08/28 01:37:28;;;;;;;10.18;2.88;;;;;;;16.36;100.00;101931.56;4901581;29;20421;-59
2022/08/28 01:39:54;;;;;;;9.68;2.72;;;;;;;16.34;100.00;101930.88;4888580;29;20060;-58
2022/08/28 01:42:20;;;;;;;14.25;3.28;;;;;;;16.33;100.00;101929.22;4890655;29;20482;-58
2022/08/28 01:44:48;;;;;;;10.45;3.45;;;;;;;16.32;100.00;101932.84;4900322;29;20051;-53
2022/08/28 01:47:15;;;;;;;7.63;2.70;;;;;;;16.28;100.00;101940.28;4905526;29;20048;-53
2022/08/28 01:49:42;;;;;;;13.20;2.72;;;;;;;16.20;100.00;101938.41;4903851;29;20060;-59
2022/08/28 01:52:08;;;;;;;8.90;3.25;;;;;;;16.17;100.00;101941.38;4908192;29;20101;-57
2022/08/28 01:54:37;;;;;;;7.90;2.83;;;;;;;16.16;100.00;101934.41;4897077;29;20052;-57
2022/08/28 01:57:04;;;;;;;13.68;2.80;;;;;;;16.13;100.00;101932.09;4905301;29;20078;-58
2022/08/28 01:59:32;;;;;;;7.97;2.40;;;;;;;16.08;100.00;101934.38;4904194;29;20071;-57
2022/08/28 02:01:58;;;;;;;10.73;2.70;;;;;;;16.02;100.00;101941.09;4900122;29;20477;-58
2022/08/28 02:04:25;;;;;;;8.30;2.47;;;;;;;16.02;100.00;101943.75;4903986;29;20051;-58
2022/08/28 02:06:57;;;;;;;8.63;2.85;;;;;;;15.99;100.00;101945.88;4896921;29;20104;-58
2022/08/28 02:09:24;;;;;;;6.43;2.72;;;;;;;15.93;100.00;101941.19;4903891;29;20064;-59
2022/08/28 02:11:50;;;;;;;7.70;2.70;;;;;;;15.94;100.00;101938.41;4893023;29;20070;-59
2022/08/28 02:14:17;;;;;;;8.60;2.70;;;;;;;15.96;100.00;101952.31;4897027;29;20040;-59
2022/08/28 02:16:43;;;;;;;8.70;2.90;;;;;;;15.91;100.00;101948.47;4909461;29;20078;-57
2022/08/28 02:19:10;;;;;;;10.02;2.83;;;;;;;15.91;100.00;101945.81;4898796;29;20052;-59
2022/08/28 02:21:37;;;;;;;9.27;2.85;;;;;;;15.84;100.00;101948.25;4900937;29;20063;-59
2022/08/28 02:24:04;;;;;;;8.65;2.75;;;;;;;15.85;100.00;101941.97;4895640;29;20059;-60
2022/08/28 02:26:30;;;;;;;7.57;2.63;;;;;;;15.82;100.00;101947.59;4908044;29;20465;-60
2022/08/28 02:28:57;;;;;;;12.95;3.97;;;;;;;15.84;100.00;101948.25;4902300;29;20062;-59
2022/08/28 02:31:25;;;;;;;9.38;2.60;;;;;;;15.90;100.00;101950.28;4908223;29;20135;-60
2022/08/28 02:33:51;;;;;;;8.10;2.50;;;;;;;15.88;100.00;101949.63;4914065;29;20066;-57
2022/08/28 02:36:19;;;;;;;5.63;2.42;;;;;;;15.88;100.00;101949.63;4891381;29;20054;-55
2022/08/28 02:38:46;;;;;;;7.22;2.58;;;;;;;15.86;100.00;101946.28;4903224;29;20144;-57
2022/08/28 02:41:12;;;;;;;9.43;2.72;;;;;;;15.83;100.00;101943.94;4897088;29;20052;-61
2022/08/28 02:43:39;;;;;;;5.45;2.40;;;;;;;15.81;100.00;101946.72;4906211;29;20093;-59
2022/08/28 02:46:06;;;;;;;10.90;2.55;;;;;;;15.79;100.00;101946.06;4895483;29;20062;-60
2022/08/28 02:48:35;;;;;;;7.63;2.65;;;;;;;15.82;100.00;101947.59;4903176;29;20062;-60
2022/08/28 02:51:05;;;;;;;8.25;2.85;;;;;;;15.78;100.00;101952.34;4894558;29;20087;-58
2022/08/28 02:53:32;;;;;;;8.07;2.80;;;;;;;15.73;100.00;101945.84;4902754;29;20064;-60
2022/08/28 02:55:59;;;;;;;7.40;2.47;;;;;;;15.74;100.00;101952.78;4906479;29;20493;-58
2022/08/28 02:58:26;;;;;;;8.23;2.40;;;;;;;15.70;100.00;101952.25;4898699;29;20062;-59
2022/08/28 03:00:53;;;;;;;7.13;2.40;;;;;;;15.71;100.00;101958.38;4902098;29;20052;-58
2022/08/28 03:03:19;;;;;;;9.50;2.35;;;;;;;15.69;100.00;101957.69;4893145;29;20052;-60
2022/08/28 03:05:46;;;;;;;8.15;2.75;;;;;;;15.69;100.00;101955.03;4899219;29;20056;-58
2022/08/28 03:08:12;;;;;;;5.50;2.28;;;;;;;15.61;100.00;101953.16;4904738;29;20060;-59
2022/08/28 03:10:39;;;;;;;9.40;2.53;;;;;;;15.59;100.00;101955.94;4904589;29;20056;-59
2022/08/28 03:13:05;;;;;;;6.68;2.28;;;;;;;15.52;100.00;101954.88;4903411;29;20060;-57
2022/08/28 03:15:32;;;;;;;8.55;2.60;;;;;;;15.57;100.00;101959.75;4893844;29;20762;-58
2022/08/28 03:17:58;;;;;;;6.18;2.22;;;;;;;15.50;100.00;101959.50;4899638;29;20143;-59
2022/08/28 03:20:25;;;;;;;9.57;2.70;;;;;;;15.45;100.00;101959.13;4896393;29;20502;-58
2022/08/28 03:25:36;;;;;;;6.30;2.30;;;;;;;15.40;100.00;101962.22;4904405;29;20143;-59
2022/08/28 03:28:03;;;;;;;7.28;2.55;;;;;;;15.37;100.00;101959.88;4898912;29;20052;-59
2022/08/28 03:30:29;;;;;;;13.60;2.90;;;;;;;15.33;100.00;101963.81;4909116;29;20067;-59
2022/08/28 03:32:56;;;;;;;8.38;2.30;;;;;;;15.30;100.00;101968.56;4902528;29;20064;-60
2022/08/28 03:35:22;;;;;;;16.17;2.97;;;;;;;15.30;100.00;101963.28;4904092;29;20074;-59
2022/08/28 03:37:49;;;;;;;7.82;2.50;;;;;;;15.29;100.00;101966.88;4904753;29;20768;-60
2022/08/28 03:40:15;;;;;;;10.73;2.85;;;;;;;15.31;100.00;101971.06;4902145;29;20048;-59
2022/08/28 03:42:42;;;;;;;8.45;2.50;;;;;;;15.33;100.00;101969.09;4898939;29;20747;-61
2022/08/28 03:45:15;;;;;;;8.23;2.75;;;;;;;15.29;100.00;101967.72;4909379;29;20067;-60
2022/08/28 03:47:41;;;;;;;6.43;2.13;;;;;;;15.28;100.00;101965.22;4911433;29;20131;-61
2022/08/28 03:50:10;;;;;;;8.35;2.38;;;;;;;15.27;100.00;101968.84;4905339;29;20064;-61
2022/08/28 03:52:39;;;;;;;8.20;2.60;;;;;;;15.23;100.00;101968.34;4906231;29;20087;-59
2022/08/28 03:55:08;;;;;;;7.65;2.75;;;;;;;15.23;100.00;101974.44;4895220;29;20054;-60
2022/08/28 03:57:35;;;;;;;8.70;2.53;;;;;;;15.20;100.00;101971.25;4902768;29;20075;-58
2022/08/28 04:00:06;;;;;;;10.43;2.88;;;;;;;15.18;100.00;101981.97;4878561;29;20735;-59
2022/08/28 04:02:32;;;;;;;7.75;2.55;;;;;;;15.09;100.00;101979.38;4904390;29;20386;-59
2022/08/28 04:04:58;;;;;;;11.23;2.55;;;;;;;15.06;100.00;101980.53;4908839;29;20087;-58
2022/08/28 04:07:25;;;;;;;8.25;2.28;;;;;;;15.02;100.00;101979.16;4903532;29;20048;-60
2022/08/28 04:09:51;;;;;;;7.82;2.28;;;;;;;15.00;100.00;101987.22;4904050;29;20051;-61
2022/08/28 04:12:18;;;;;;;9.63;2.15;;;;;;;14.92;100.00;101981.03;4874201;29;20142;-55
2022/08/28 04:14:44;;;;;;;7.13;3.33;;;;;;;14.92;100.00;101989.78;4907224;29;20520;-59
2022/08/28 04:17:10;;;;;;;6.63;2.10;;;;;;;14.86;100.00;101982.44;4904122;29;20420;-59
2022/08/28 04:19:37;;;;;;;12.27;2.40;;;;;;;14.89;100.00;101989.22;4909530;29;20058;-59
2022/08/28 04:22:04;;;;;;;6.03;2.78;;;;;;;14.85;100.00;101993.16;4906380;29;20394;-59
2022/08/28 04:24:30;;;;;;;11.82;2.85;;;;;;;14.82;100.00;101992.47;4885513;29;20404;-59
2022/08/28 04:26:56;;;;;;;9.13;2.35;;;;;;;14.84;100.00;102000.25;4909190;29;20059;-60
2022/08/28 04:29:23;;;;;;;7.10;2.15;;;;;;;14.80;100.00;101993.59;4905437;29;20056;-59
2022/08/28 04:31:49;;;;;;;10.85;1.90;;;;;;;14.85;100.00;101995.78;4900800;29;20055;-59
2022/08/28 04:34:16;;;;;;;7.43;2.20;;;;;;;14.85;100.00;102001.06;4903731;29;20048;-58
2022/08/28 04:36:43;;;;;;;10.95;2.40;;;;;;;14.77;100.00;101992.06;4908911;29;20150;-58
2022/08/28 04:39:09;;;;;;;5.20;1.90;;;;;;;14.79;100.00;101995.38;4910091;29;20068;-59
2022/08/28 04:41:37;;;;;;;5.80;2.20;;;;;;;14.83;100.00;102003.84;4903966;29;20056;-59
2022/08/28 04:44:05;;;;;;;5.28;1.95;;;;;;;14.86;100.00;102003.56;4906188;29;20153;-59
2022/08/28 04:46:32;;;;;;;6.82;2.13;;;;;;;14.78;100.00;102012.22;4901523;29;20052;-59
2022/08/28 04:48:59;;;;;;;9.25;2.60;;;;;;;14.72;100.00;102006.66;4904187;29;20060;-59
2022/08/28 04:51:26;;;;;;;12.55;3.00;;;;;;;14.72;100.00;102002.25;4904073;29;20059;-59
2022/08/28 04:53:52;;;;;;;11.70;2.60;;;;;;;14.65;100.00;102009.06;4908184;29;20056;-61
2022/08/28 04:56:19;;;;;;;11.98;2.83;;;;;;;14.69;100.00;102013.06;4909089;29;20614;-57
2022/08/28 04:58:45;;;;;;;10.00;2.50;;;;;;;14.72;100.00;102010.16;4888411;29;20449;-59
2022/08/28 05:01:18;;;;;;;6.72;2.20;;;;;;;14.80;100.00;102015.53;4899678;29;20062;-55
2022/08/28 05:03:46;;;;;;;11.00;2.88;;;;;;;14.76;100.00;102018.59;4888938;29;20057;-59
2022/08/28 05:06:14;;;;;;;;;;;;;;;14.79;100.00;102011.22;4908135;29;20088;-62
2022/08/28 05:08:41;;;;;;;12.27;2.20;;;;;;;14.77;100.00;102020.28;4902681;29;19934;-59
2022/08/28 05:11:18;;;;;;;9.63;2.60;;;;;;;14.82;100.00;102018.06;4902310;29;20056;-60
2022/08/28 05:14:05;;;;;;;7.63;2.63;;;;;;;14.82;100.00;102018.06;4902963;29;20060;-60
2022/08/28 05:16:33;;;;;;;11.07;2.85;;;;;;;14.86;100.00;102013.28;4881824;29;20082;-60
2022/08/28 05:19:01;;;;;;;7.88;2.72;;;;;;;14.89;100.00;102016.47;4902913;29;20581;-60
2022/08/28 05:21:27;;;;;;;8.30;2.28;;;;;;;14.91;100.00;102017.16;4897198;29;20056;-59
2022/08/28 05:23:56;;;;;;;10.90;2.15;;;;;;;15.03;100.00;102023.09;4901861;29;20413;-60
2022/08/28 05:26:23;;;;;;;11.48;2.38;;;;;;;15.07;100.00;102015.69;4897502;29;20052;-59
2022/08/28 05:28:54;;;;;;;8.63;2.30;;;;;;;15.08;100.00;102012.09;4904316;29;20044;-60
2022/08/28 05:31:22;;;;;;;6.90;2.03;;;;;;;15.10;100.00;102016.25;4898740;29;20421;-60
2022/08/28 05:33:51;;;;;;;8.02;2.60;;;;;;;15.15;100.00;102015.78;4916433;29;20846;-61
2022/08/28 05:36:18;;;;;;;;;;;;;;;15.19;100.00;102025.94;4899026;29;20055;-62
2022/08/28 05:38:45;;;;;;;8.98;2.90;;;;;;;15.19;100.00;102023.28;4908899;29;19937;-60
2022/08/28 05:41:19;;;;;;;5.95;2.20;;;;;;;15.29;100.00;102023.25;4906264;29;20052;-60
2022/08/28 05:43:46;;;;;;;7.38;2.20;;;;;;;15.35;100.00;102029.75;4895947;29;20152;-61
2022/08/28 05:46:14;;;;;;;8.32;1.95;;;;;;;15.37;100.00;102027.78;4900599;29;20055;-58
2022/08/28 05:48:41;;;;;;;7.28;1.75;;;;;;;15.45;100.00;102030.53;4901495;29;20055;-58
2022/08/28 05:51:11;;;;;;;6.72;1.98;;;;;;;15.52;100.00;102034.22;4906714;29;20051;-62
2022/08/28 05:53:40;;;;;;;7.85;2.50;;;;;;;15.55;100.00;102038.41;4909083;29;20060;-61
2022/08/28 05:56:08;;;;;;;9.18;2.40;;;;;;;15.56;100.00;102038.25;4896431;29;20501;-60
2022/08/28 05:58:36;;;;;;;6.90;2.20;;;;;;;15.57;100.00;102045.19;4900289;29;20052;-61
2022/08/28 06:01:06;;;;;;;7.07;2.57;;;;;;;15.66;100.00;102045.25;4896880;29;20056;-61
2022/08/28 06:03:34;;;;;;;9.80;2.10;;;;;;;15.68;100.00;102041.50;4899590;29;20131;-61
2022/08/28 06:06:00;;;;;;;7.88;2.35;;;;;;;15.72;100.00;102037.56;4896017;29;20532;-59
2022/08/28 06:08:28;;;;;;;11.10;2.38;;;;;;;15.75;100.00;102044.41;4903508;29;20054;-60
2022/08/28 06:10:55;;;;;;;8.40;2.42;;;;;;;15.77;100.00;102039.78;4903696;29;20506;-60
2022/08/28 06:13:22;;;;;;;8.75;2.28;;;;;;;15.76;100.00;102046.09;4899324;29;20056;-57
2022/08/28 06:15:49;;;;;;;10.90;2.20;;;;;;;15.77;100.00;102048.56;4898819;29;20052;-61
2022/08/28 06:18:16;;;;;;;9.57;2.30;;;;;;;15.80;100.00;102045.63;4898689;29;20090;-59
2022/08/28 06:20:45;;;;;;;6.65;1.80;;;;;;;15.85;100.00;102049.63;4907229;29;20599;-60
2022/08/28 06:23:17;;;;;;;10.75;2.30;;;;;;;15.84;100.00;102053.25;4897940;29;20519;-59
2022/08/28 06:25:50;;;;;;;6.80;1.80;;;;;;;15.88;100.00;102052.81;4900155;29;20063;-61
2022/08/28 06:28:21;;;;;;;7.63;2.13;;;;;;;15.95;100.00;102056.47;4896728;29;20044;-60
2022/08/28 06:30:48;;;;;;;9.77;2.22;;;;;;;16.00;100.00;102056.06;4875633;29;20770;-60
2022/08/28 06:33:34;;;;;;;9.75;2.22;;;;;;;16.04;100.00;102057.41;4903826;29;20447;-60
2022/08/28 06:36:03;;;;;;;4.60;1.65;;;;;;;16.11;100.00;102069.06;4887615;29;20049;-60
2022/08/28 06:38:30;;;;;;;5.95;1.60;;;;;;;16.11;100.00;102054.97;4899613;29;20405;-59
2022/08/28 06:40:56;;;;;;;7.75;2.22;;;;;;;16.11;100.00;102069.06;4892770;29;20052;-59
2022/08/28 06:43:26;;;;;;;10.98;2.10;;;;;;;16.20;100.00;102067.28;4906974;29;20735;-60
2022/08/28 06:45:54;;;;;;;5.32;1.75;;;;;;;16.27;100.00;102071.00;4900308;29;20056;-60
2022/08/28 06:48:26;;;;;;;6.97;2.08;;;;;;;16.33;100.00;102070.38;4906532;29;20683;-59
2022/08/28 06:50:54;;;;;;;7.00;2.00;;;;;;;16.32;100.00;102068.72;4894656;29;20051;-59
2022/08/28 06:53:23;;;;;;;;;;;;;;;16.42;100.00;102063.31;4890211;29;20072;-59
2022/08/28 06:56:06;;;;;;;9.60;1.90;;;;;;;16.49;100.00;102060.91;4902997;29;20090;-59
2022/08/28 06:58:38;;;;;;;17.08;2.42;;;;;;;16.51;100.00;102059.75;4887957;29;20060;-60
2022/08/28 07:01:09;;;;;;;7.03;1.77;;;;;;;16.52;100.00;102061.41;4907441;29;20052;-60
2022/08/28 07:03:39;;;;;;;8.55;2.03;;;;;;;16.59;100.00;102065.09;4899520;29;20048;-60
2022/08/28 07:06:11;;;;;;;14.52;2.30;;;;;;;16.64;100.00;102067.28;4897647;29;20055;-59
2022/08/28 07:08:39;;;;;;;11.38;2.45;;;;;;;16.70;100.00;102064.03;4897154;29;20057;-59
2022/08/28 07:11:16;;;;;;;7.18;2.28;;;;;;;16.79;100.00;102065.72;4878795;29;20602;-59
2022/08/28 07:13:43;;;;;;;7.15;2.20;;;;;;;16.88;100.00;102063.97;4907482;29;20051;-59
2022/08/28 07:16:12;;;;;;;8.50;2.80;;;;;;;16.94;100.00;102065.19;4896752;29;20771;-59
2022/08/28 07:18:39;;;;;;;9.80;2.00;;;;;;;16.90;100.00;102071.78;4895732;29;20498;-60
2022/08/28 07:21:07;;;;;;;6.50;2.10;;;;;;;16.95;100.00;102070.28;4889357;29;20133;-60
2022/08/28 07:23:39;;;;;;;9.43;2.60;;;;;;;16.95;100.00;102072.13;4905192;29;20087;-59
2022/08/28 07:26:08;;;;;;;7.60;2.10;;;;;;;17.02;100.00;102065.22;4894099;29;20048;-60
2022/08/28 07:28:35;;;;;;;5.15;2.00;;;;;;;17.04;100.00;102065.88;4898857;29;20097;-60
2022/08/28 07:31:04;;;;;;;6.45;1.88;;;;;;;17.11;100.00;102066.06;4899766;29;20481;-59
2022/08/28 07:33:32;;;;;;;7.68;2.00;;;;;;;17.15;100.00;102068.25;4889772;29;20063;-58
2022/08/28 07:35:59;;;;;;;7.10;1.70;;;;;;;17.19;100.00;102068.78;4903524;29;20060;-58
2022/08/28 07:38:26;;;;;;;5.82;1.70;;;;;;;17.24;100.00;102077.06;4893032;29;20501;-58
2022/08/28 07:40:53;;;;;;;9.15;1.90;;;;;;;17.34;100.00;102075.09;4886379;29;20056;-60
2022/08/28 07:46:10;;;;;;;4.47;1.70;;;;;;;17.46;99.89;102075.63;4896152;29;20402;-60
2022/08/28 07:48:38;;;;;;;6.43;1.80;;;;;;;17.59;96.79;102083.97;4890339;29;20048;-59
2022/08/28 07:51:06;;;;;;;7.50;1.70;;;;;;;17.61;96.82;102075.03;4897510;29;20066;-61
2022/08/28 07:53:32;;;;;;;8.07;2.10;;;;;;;17.73;96.02;102081.69;4906445;29;20135;-59
2022/08/28 07:56:03;;;;;;;5.40;1.75;;;;;;;17.80;94.62;102074.75;4899223;29;20075;-59
2022/08/28 07:58:30;;;;;;;8.88;1.70;;;;;;;17.83;94.98;102078.88;4900855;29;20056;-58
2022/08/28 08:00:57;;;;;;;5.68;1.40;;;;;;;17.94;93.62;102076.78;4888837;29;20468;-59
2022/08/28 08:03:24;;;;;;;8.02;1.63;;;;;;;18.08;92.57;102074.47;4897781;29;20424;-58
2022/08/28 08:05:53;;;;;;;6.65;1.48;;;;;;;18.20;91.17;102073.13;4895402;29;20561;-57
2022/08/28 08:08:20;;;;;;;6.90;1.70;;;;;;;18.32;88.64;102077.09;4902938;29;20089;-59
2022/08/28 08:11:17;;;;;;;9.70;1.67;;;;;;;18.66;86.83;102075.22;4902210;29;20134;-61
2022/08/28 08:13:46;;;;;;;4.65;1.90;;;;;;;18.89;85.18;102078.84;4881297;29;20731;-60
2022/08/28 08:16:18;;;;;;;5.25;1.40;;;;;;;19.21;83.50;102084.22;4901364;29;20445;-60
2022/08/28 08:18:47;;;;;;;11.27;1.88;;;;;;;19.46;80.78;102088.44;4898450;29;20052;-60
2022/08/28 08:21:15;;;;;;;4.90;1.30;;;;;;;19.73;78.17;102097.78;4906531;29;20150;-60
2022/08/28 08:23:41;;;;;;;6.32;1.50;;;;;;;19.70;76.05;102098.13;4900154;29;20056;-60
2022/08/28 08:26:11;;;;;;;4.10;1.50;;;;;;;19.98;75.63;102099.47;4905253;29;20066;-60
2022/08/28 08:28:38;;;;;;;5.55;1.63;;;;;;;20.19;74.85;102098.78;4899339;29;20054;-63
2022/08/28 08:31:21;;;;;;;11.03;1.73;;;;;;;20.47;72.72;102104.41;4898865;29;20062;-60
2022/08/28 08:33:50;;;;;;;4.15;1.30;;;;;;;20.68;70.87;102101.03;4907662;29;20287;-61
2022/08/28 08:36:19;;;;;;;5.28;1.40;;;;;;;20.57;70.71;102101.47;4900854;29;20051;-60
2022/08/28 08:38:46;;;;;;;5.13;1.33;;;;;;;20.46;69.17;102100.06;4907956;29;20048;-60
2022/08/28 08:41:42;;;;;;;3.17;1.08;;;;;;;20.83;69.80;102104.56;4901076;29;20737;-58
2022/08/28 08:44:31;;;;;;;5.00;1.42;;;;;;;21.07;69.34;102108.81;4901277;29;20058;-61
2022/08/28 08:47:08;;;;;;;6.93;1.45;;;;;;;21.28;66.78;102097.34;4900093;29;20763;-61
2022/08/28 08:50:02;;;;;;;4.55;1.23;;;;;;;21.50;66.62;102084.94;4906459;29;20051;-59
2022/08/28 08:52:37;;;;;;;5.22;1.63;;;;;;;21.67;64.72;102085.50;4901272;29;20052;-61
2022/08/28 08:55:22;;;;;;;6.70;1.40;;;;;;;21.63;63.79;102088.75;4907706;29;20044;-61
2022/08/28 08:57:58;;;;;;;8.50;2.20;;;;;;;21.65;62.74;102092.88;4893724;29;20196;-60
2022/08/28 09:00:25;;;;;;;4.10;1.52;;;;;;;21.71;63.33;102091.31;4907252;29;20052;-60
2022/08/28 09:02:59;;;;;;;5.40;1.52;;;;;;;21.97;63.52;102087.25;4904857;29;20048;-59
2022/08/28 09:05:48;;;;;;;7.05;1.50;;;;;;;22.15;63.51;102087.63;4904510;29;20709;-59
2022/08/28 09:08:30;;;;;;;6.97;1.77;;;;;;;22.41;63.23;102088.88;4907194;29;20048;-61
2022/08/28 09:11:30;;;;;;;7.10;1.27;;;;;;;22.56;62.94;102084.28;4893246;29;20056;-60
2022/08/28 09:14:14;;;;;;;4.15;1.48;;;;;;;22.58;61.32;102090.25;4885842;29;20203;-60
2022/08/28 09:16:45;;;;;;;6.80;1.63;;;;;;;22.84;60.15;102089.56;4901460;29;20521;-61
2022/08/28 09:19:17;;;;;;;4.35;1.30;;;;;;;22.92;60.62;102095.78;4908427;29;20149;-61
2022/08/28 09:21:44;;;;;;;6.53;1.48;;;;;;;22.81;60.06;102089.13;4901917;29;20060;-60
2022/08/28 09:24:22;;;;;;;4.25;1.42;;;;;;;22.69;60.02;102089.69;4902692;29;20052;-61
2022/08/28 09:26:52;;;;;;;;;;;;;;;22.45;60.64;102088.28;4896951;29;20052;-61
2022/08/28 09:29:27;;;;;;;7.35;1.50;;;;;;;22.44;60.57;102089.34;4908927;29;19934;-62
2022/08/28 09:31:54;;;;;;;5.97;1.40;;;;;;;22.64;59.48;102088.59;4903886;29;20412;-62
2022/08/28 09:34:31;;;;;;;4.07;1.40;;;;;;;22.93;59.95;102086.72;4904729;29;20162;-59
2022/08/28 09:37:07;;;;;;;4.90;1.38;;;;;;;23.17;58.73;102074.72;4901614;29;20323;-61
2022/08/28 09:39:36;;;;;;;5.68;1.30;;;;;;;23.37;58.46;102080.97;4894920;29;20048;-61
2022/08/28 09:45:23;;;;;;;5.43;1.40;;;;;;;23.74;57.66;102080.66;4886786;29;20072;-60
2022/08/28 09:48:01;;;;;;;3.75;1.30;;;;;;;24.05;57.07;102085.44;4908681;29;20052;-60
2022/08/28 09:50:36;;;;;;;5.30;1.35;;;;;;;24.28;57.11;102085.88;4899617;29;20056;-60
2022/08/28 09:53:08;;;;;;;5.13;1.33;;;;;;;24.56;56.00;102076.81;4899593;29;20052;-61
2022/08/28 09:55:48;;;;;;;3.72;1.30;;;;;;;24.74;54.84;102078.00;4903261;29;20063;-62
2022/08/28 09:58:17;;;;;;;4.07;1.30;;;;;;;24.86;55.36;102084.38;4897173;29;20064;-60
2022/08/28 10:00:51;;;;;;;4.50;1.42;;;;;;;24.92;54.89;102080.03;4899154;29;20066;-60
2022/08/28 10:03:29;;;;;;;3.80;1.10;;;;;;;24.64;56.46;102087.31;4907265;29;20099;-60
2022/08/28 10:06:11;;;;;;;3.10;1.17;;;;;;;24.48;54.79;102085.03;4909476;29;20056;-62
2022/08/28 10:09:17;;;;;;;7.50;1.50;;;;;;;24.13;56.32;102087.09;4902007;29;20055;-61
2022/08/28 10:11:56;;;;;;;3.60;1.40;;;;;;;24.17;55.96;102085.66;4906046;29;20063;-61
2022/08/28 10:14:41;;;;;;;4.03;1.17;;;;;;;24.04;56.45;102087.31;4905736;29;20056;-61
2022/08/28 10:17:40;;;;;;;4.82;1.40;;;;;;;23.92;55.54;102082.78;4906270;29;20056;-62
2022/08/28 10:20:30;;;;;;;7.90;1.45;;;;;;;24.19;54.41;102080.94;4892159;29;20479;-59
2022/08/28 10:23:17;;;;;;;5.50;1.60;;;;;;;24.15;55.08;102093.09;4901452;29;20059;-61
2022/08/28 10:25:58;;;;;;;3.50;1.10;;;;;;;24.54;54.94;102088.75;4908459;29;20580;-62
2022/08/28 10:28:40;;;;;;;3.85;1.38;;;;;;;24.96;54.29;102082.06;4902658;29;20060;-59
2022/08/28 10:31:35;;;;;;;5.65;1.30;;;;;;;25.34;52.42;102088.53;4901823;29;20058;-62
2022/08/28 10:34:25;;;;;;;3.65;1.33;;;;;;;25.23;51.66;102087.38;4900110;29;20052;-62
2022/08/28 10:37:08;;;;;;;3.60;1.20;;;;;;;25.13;51.52;102090.47;4897725;29;20055;-62
2022/08/28 10:39:48;;;;;;;3.75;1.48;;;;;;;25.08;52.23;102090.28;4901908;29;20056;-60
2022/08/28 10:42:23;;;;;;;2.55;1.20;;;;;;;25.23;54.03;102093.53;4893133;29;20132;-61
2022/08/28 10:45:07;;;;;;;3.75;1.30;;;;;;;25.34;50.94;102093.91;4901780;29;20052;-61
2022/08/28 10:47:37;;;;;;;4.43;1.10;;;;;;;25.59;52.57;102088.59;4892691;29;20070;-61
2022/08/28 10:50:22;;;;;;;5.25;1.50;;;;;;;25.98;52.65;102090.22;4898081;29;20107;-61
2022/08/28 10:52:59;;;;;;;4.93;1.33;;;;;;;26.22;50.35;102091.25;4899500;29;20059;-61
2022/08/28 10:55:46;;;;;;;3.38;1.33;;;;;;;26.39;49.31;102088.03;4900807;29;20512;-61
2022/08/28 10:58:14;;;;;;;3.00;1.23;;;;;;;26.68;49.45;102085.69;4894759;29;20081;-61
2022/08/28 11:00:54;;;;;;;3.58;1.50;;;;;;;26.87;48.03;102075.75;4900724;29;20429;-59
2022/08/28 11:03:24;;;;;;;4.35;1.50;;;;;;;27.06;47.05;102077.38;4907612;29;20103;-61
2022/08/28 11:06:10;;;;;;;2.85;1.30;;;;;;;27.32;45.88;102080.78;4907131;29;20119;-60
2022/08/28 11:08:38;;;;;;;5.68;1.33;;;;;;;27.32;48.12;102083.50;4899246;29;20059;-61
2022/08/28 11:11:12;;;;;;;4.75;1.52;;;;;;;27.56;46.37;102066.38;4900828;29;20072;-60
2022/08/28 11:13:47;;;;;;;4.55;1.30;;;;;;;27.68;46.40;102068.25;4906044;29;20048;-62
2022/08/28 11:16:37;;;;;;;4.30;1.35;;;;;;;27.47;47.46;102078.53;4894458;29;20052;-61
2022/08/28 11:19:18;;;;;;;3.72;1.40;;;;;;;27.26;47.56;102071.75;4897761;29;20055;-60
2022/08/28 11:21:53;;;;;;;3.63;1.25;;;;;;;27.11;48.05;102074.00;4887704;29;20052;-61
2022/08/28 11:24:29;;;;;;;2.15;1.20;;;;;;;26.92;47.52;102084.78;4900177;29;20143;-60
2022/08/28 11:27:15;;;;;;;4.82;1.40;;;;;;;26.50;48.09;102079.22;4894752;29;20070;-61
2022/08/28 11:30:23;;;;;;;6.13;2.50;;;;;;;26.47;48.79;102087.72;4900711;29;20052;-62
2022/08/28 11:32:49;;;;;;;5.15;1.77;;;;;;;26.29;48.46;102079.66;4895826;29;20052;-56
2022/08/28 11:35:19;;;;;;;5.97;1.52;;;;;;;26.47;49.09;102071.59;4906412;29;20052;-61
2022/08/28 11:37:53;;;;;;;7.28;1.63;;;;;;;26.51;49.21;102082.72;4900933;29;20062;-60
2022/08/28 11:40:29;;;;;;;4.82;1.20;;;;;;;26.39;47.77;102085.34;4904778;29;20149;-63
2022/08/28 11:43:13;;;;;;;4.00;1.38;;;;;;;26.33;47.29;102086.22;4895725;29;20171;-62
2022/08/28 11:45:42;;;;;;;4.20;1.15;;;;;;;26.14;48.60;102083.47;4908544;29;20052;-60
2022/08/28 11:48:27;;;;;;;3.90;1.50;;;;;;;26.20;49.44;102081.78;4903689;29;20505;-60
2022/08/28 11:51:19;;;;;;;5.15;1.40;;;;;;;26.14;49.20;102086.16;4904599;29;20052;-56